sensor_id;sensor_type;location;lat;lon;timestamp;temperature;humidity
11136;DHT22;5622;50.840;4.948;2023-03-12T00:00:19;3.70;99.90
11136;DHT22;5622;50.840;4.948;2023-03-12T00:02:46;3.60;99.90
11136;DHT22;5622;50.840;4.948;2023-03-12T00:05:15;3.70;99.90
11136;DHT22;5622;50.840;4.948;2023-03-12T00:07:42;3.70;99.90
11136;DHT22;5622;50.840;4.948;2023-03-12T00:10:10;3.70;99.90
11136;DHT22;5622;50.840;4.948;2023-03-12T00:12:37;3.80;99.90
11136;DHT22;5622;50.840;4.948;2023-03-12T00:15:05;3.80;99.90
11136;DHT22;5622;50.840;4.948;2023-03-12T00:17:33;3.80;99.90
11136;DHT22;5622;50.840;4.948;2023-03-12T00:20:00;3.80;99.90
11136;DHT22;5622;50.840;4.948;2023-03-12T00:22:29;3.80;99.90
11136;DHT22;5622;50.840;4.948;2023-03-12T00:24:56;3.80;99.90
11136;DHT22;5622;50.840;4.948;2023-03-12T00:27:25;3.90;99.90
11136;DHT22;5622;50.840;4.948;2023-03-12T00:29:52;3.90;99.90
11136;DHT22;5622;50.840;4.948;2023-03-12T00:32:19;4.10;99.90
11136;DHT22;5622;50.840;4.948;2023-03-12T00:34:49;3.90;99.90
11136;DHT22;5622;50.840;4.948;2023-03-12T00:37:17;3.90;99.90
11136;DHT22;5622;50.840;4.948;2023-03-12T00:39:46;3.90;99.90
11136;DHT22;5622;50.840;4.948;2023-03-12T00:42:13;4.00;99.90
11136;DHT22;5622;50.840;4.948;2023-03-12T00:44:40;4.00;99.90
11136;DHT22;5622;50.840;4.948;2023-03-12T00:47:08;4.00;99.90
11136;DHT22;5622;50.840;4.948;2023-03-12T00:49:36;4.00;99.90
11136;DHT22;5622;50.840;4.948;2023-03-12T00:52:04;4.00;99.90
11136;DHT22;5622;50.840;4.948;2023-03-12T00:54:32;4.00;99.90
11136;DHT22;5622;50.840;4.948;2023-03-12T00:57:00;4.10;99.90
11136;DHT22;5622;50.840;4.948;2023-03-12T00:59:27;4.00;99.90
11136;DHT22;5622;50.840;4.948;2023-03-12T01:01:54;4.00;99.90
11136;DHT22;5622;50.840;4.948;2023-03-12T01:04:21;4.10;99.90
11136;DHT22;5622;50.840;4.948;2023-03-12T01:06:49;4.10;99.90
11136;DHT22;5622;50.840;4.948;2023-03-12T01:09:16;4.10;99.90
11136;DHT22;5622;50.840;4.948;2023-03-12T01:11:43;4.10;99.90
11136;DHT22;5622;50.840;4.948;2023-03-12T01:14:11;4.10;99.90
11136;DHT22;5622;50.840;4.948;2023-03-12T01:16:39;4.10;99.90
11136;DHT22;5622;50.840;4.948;2023-03-12T01:19:06;4.20;99.90
11136;DHT22;5622;50.840;4.948;2023-03-12T01:21:33;4.20;99.90
11136;DHT22;5622;50.840;4.948;2023-03-12T01:24:00;4.20;99.90
11136;DHT22;5622;50.840;4.948;2023-03-12T01:26:27;4.20;99.90
11136;DHT22;5622;50.840;4.948;2023-03-12T01:28:54;4.20;99.90
11136;DHT22;5622;50.840;4.948;2023-03-12T01:31:23;4.20;99.90
11136;DHT22;5622;50.840;4.948;2023-03-12T01:33:51;4.20;99.90
11136;DHT22;5622;50.840;4.948;2023-03-12T01:36:19;4.20;99.90
11136;DHT22;5622;50.840;4.948;2023-03-12T01:38:49;4.30;99.90
11136;DHT22;5622;50.840;4.948;2023-03-12T01:41:17;4.30;99.90
11136;DHT22;5622;50.840;4.948;2023-03-12T01:43:45;4.30;99.90
11136;DHT22;5622;50.840;4.948;2023-03-12T01:46:24;4.30;99.90
11136;DHT22;5622;50.840;4.948;2023-03-12T01:48:55;4.30;99.90
11136;DHT22;5622;50.840;4.948;2023-03-12T01:51:25;4.30;99.90
11136;DHT22;5622;50.840;4.948;2023-03-12T01:53:57;4.40;99.90
11136;DHT22;5622;50.840;4.948;2023-03-12T01:56:28;4.40;99.90
11136;DHT22;5622;50.840;4.948;2023-03-12T01:58:59;4.40;99.90
11136;DHT22;5622;50.840;4.948;2023-03-12T02:01:30;4.40;99.90
11136;DHT22;5622;50.840;4.948;2023-03-12T02:03:58;4.40;99.90
11136;DHT22;5622;50.840;4.948;2023-03-12T02:06:32;4.40;99.90
11136;DHT22;5622;50.840;4.948;2023-03-12T02:09:01;4.60;99.90
11136;DHT22;5622;50.840;4.948;2023-03-12T02:11:28;4.30;99.90
11136;DHT22;5622;50.840;4.948;2023-03-12T02:13:55;4.40;99.90
11136;DHT22;5622;50.840;4.948;2023-03-12T02:16:23;4.30;99.90
11136;DHT22;5622;50.840;4.948;2023-03-12T02:18:54;4.30;99.90
11136;DHT22;5622;50.840;4.948;2023-03-12T02:21:24;4.30;99.90
11136;DHT22;5622;50.840;4.948;2023-03-12T02:23:57;4.30;99.90
11136;DHT22;5622;50.840;4.948;2023-03-12T02:26:29;4.30;99.90
11136;DHT22;5622;50.840;4.948;2023-03-12T02:28:59;4.30;99.90
11136;DHT22;5622;50.840;4.948;2023-03-12T02:31:28;4.20;99.90
11136;DHT22;5622;50.840;4.948;2023-03-12T02:33:57;4.20;99.90
11136;DHT22;5622;50.840;4.948;2023-03-12T02:36:25;4.20;99.90
11136;DHT22;5622;50.840;4.948;2023-03-12T02:38:53;4.20;99.90
11136;DHT22;5622;50.840;4.948;2023-03-12T02:41:23;4.30;99.90
11136;DHT22;5622;50.840;4.948;2023-03-12T02:43:57;4.20;99.90
11136;DHT22;5622;50.840;4.948;2023-03-12T02:46:27;4.10;99.90
11136;DHT22;5622;50.840;4.948;2023-03-12T02:48:55;4.20;99.90
11136;DHT22;5622;50.840;4.948;2023-03-12T02:51:22;4.20;99.90
11136;DHT22;5622;50.840;4.948;2023-03-12T02:53:49;4.20;99.90
11136;DHT22;5622;50.840;4.948;2023-03-12T02:56:20;4.10;99.90
11136;DHT22;5622;50.840;4.948;2023-03-12T02:58:48;4.20;99.90
11136;DHT22;5622;50.840;4.948;2023-03-12T03:01:17;4.20;99.90
11136;DHT22;5622;50.840;4.948;2023-03-12T03:03:45;4.10;99.90
11136;DHT22;5622;50.840;4.948;2023-03-12T03:06:13;4.10;99.90
11136;DHT22;5622;50.840;4.948;2023-03-12T03:08:41;4.10;99.90
11136;DHT22;5622;50.840;4.948;2023-03-12T03:11:08;4.20;99.90
11136;DHT22;5622;50.840;4.948;2023-03-12T03:13:35;4.20;99.90
11136;DHT22;5622;50.840;4.948;2023-03-12T03:16:03;4.20;99.90
11136;DHT22;5622;50.840;4.948;2023-03-12T03:18:32;4.20;99.90
11136;DHT22;5622;50.840;4.948;2023-03-12T03:21:01;4.10;99.90
11136;DHT22;5622;50.840;4.948;2023-03-12T03:23:29;4.20;99.90
11136;DHT22;5622;50.840;4.948;2023-03-12T03:25:56;4.20;99.90
11136;DHT22;5622;50.840;4.948;2023-03-12T03:28:25;4.20;99.90
11136;DHT22;5622;50.840;4.948;2023-03-12T03:30:53;4.20;99.90
11136;DHT22;5622;50.840;4.948;2023-03-12T03:33:23;4.20;99.90
11136;DHT22;5622;50.840;4.948;2023-03-12T03:35:51;4.20;99.90
11136;DHT22;5622;50.840;4.948;2023-03-12T03:38:20;4.20;99.90
11136;DHT22;5622;50.840;4.948;2023-03-12T03:40:49;4.20;99.90
11136;DHT22;5622;50.840;4.948;2023-03-12T03:43:17;4.20;99.90
11136;DHT22;5622;50.840;4.948;2023-03-12T03:45:45;4.20;99.90
11136;DHT22;5622;50.840;4.948;2023-03-12T03:48:12;4.20;99.90
11136;DHT22;5622;50.840;4.948;2023-03-12T03:50:40;4.20;99.90
11136;DHT22;5622;50.840;4.948;2023-03-12T03:53:09;4.20;99.90
11136;DHT22;5622;50.840;4.948;2023-03-12T03:55:37;4.20;99.90
11136;DHT22;5622;50.840;4.948;2023-03-12T03:58:07;4.20;99.90
11136;DHT22;5622;50.840;4.948;2023-03-12T04:00:35;4.20;99.90
11136;DHT22;5622;50.840;4.948;2023-03-12T04:03:02;4.30;99.90
11136;DHT22;5622;50.840;4.948;2023-03-12T04:05:29;4.30;99.90
11136;DHT22;5622;50.840;4.948;2023-03-12T04:07:56;4.40;99.90
11136;DHT22;5622;50.840;4.948;2023-03-12T04:10:29;4.30;99.90
11136;DHT22;5622;50.840;4.948;2023-03-12T04:12:56;4.30;99.90
11136;DHT22;5622;50.840;4.948;2023-03-12T04:15:24;4.30;99.90
11136;DHT22;5622;50.840;4.948;2023-03-12T04:17:51;4.30;99.90
11136;DHT22;5622;50.840;4.948;2023-03-12T04:20:21;4.40;99.90
11136;DHT22;5622;50.840;4.948;2023-03-12T04:22:48;4.40;99.90
11136;DHT22;5622;50.840;4.948;2023-03-12T04:25:15;4.40;99.90
11136;DHT22;5622;50.840;4.948;2023-03-12T04:27:43;4.40;99.90
11136;DHT22;5622;50.840;4.948;2023-03-12T04:30:11;4.40;99.90
11136;DHT22;5622;50.840;4.948;2023-03-12T04:32:39;4.40;99.90
11136;DHT22;5622;50.840;4.948;2023-03-12T04:35:06;4.50;99.90
11136;DHT22;5622;50.840;4.948;2023-03-12T04:37:33;4.50;99.90
11136;DHT22;5622;50.840;4.948;2023-03-12T04:40:00;4.40;99.90
11136;DHT22;5622;50.840;4.948;2023-03-12T04:42:30;4.50;99.90
11136;DHT22;5622;50.840;4.948;2023-03-12T04:44:59;4.50;99.90
11136;DHT22;5622;50.840;4.948;2023-03-12T04:47:26;4.50;99.90
11136;DHT22;5622;50.840;4.948;2023-03-12T04:49:53;4.60;99.90
11136;DHT22;5622;50.840;4.948;2023-03-12T04:52:20;4.60;99.90
11136;DHT22;5622;50.840;4.948;2023-03-12T04:54:47;4.60;99.90
11136;DHT22;5622;50.840;4.948;2023-03-12T04:57:15;4.60;99.90
11136;DHT22;5622;50.840;4.948;2023-03-12T04:59:42;4.60;99.90
11136;DHT22;5622;50.840;4.948;2023-03-12T05:02:11;4.60;99.90
11136;DHT22;5622;50.840;4.948;2023-03-12T05:04:38;4.60;99.90
11136;DHT22;5622;50.840;4.948;2023-03-12T05:07:05;4.70;99.90
11136;DHT22;5622;50.840;4.948;2023-03-12T05:09:32;4.70;99.90
11136;DHT22;5622;50.840;4.948;2023-03-12T05:12:00;4.70;99.90
11136;DHT22;5622;50.840;4.948;2023-03-12T05:14:27;4.60;99.90
11136;DHT22;5622;50.840;4.948;2023-03-12T05:16:54;4.70;99.90
11136;DHT22;5622;50.840;4.948;2023-03-12T05:19:23;4.70;99.90
11136;DHT22;5622;50.840;4.948;2023-03-12T05:21:51;4.70;99.90
11136;DHT22;5622;50.840;4.948;2023-03-12T05:24:18;4.70;99.90
11136;DHT22;5622;50.840;4.948;2023-03-12T05:26:46;4.80;99.90
11136;DHT22;5622;50.840;4.948;2023-03-12T05:29:13;4.80;99.90
11136;DHT22;5622;50.840;4.948;2023-03-12T05:31:41;4.80;99.90
11136;DHT22;5622;50.840;4.948;2023-03-12T05:34:10;4.80;99.90
11136;DHT22;5622;50.840;4.948;2023-03-12T05:36:39;4.80;99.90
11136;DHT22;5622;50.840;4.948;2023-03-12T05:39:06;4.80;99.90
11136;DHT22;5622;50.840;4.948;2023-03-12T05:41:33;4.90;99.90
11136;DHT22;5622;50.840;4.948;2023-03-12T05:44:01;4.90;99.90
11136;DHT22;5622;50.840;4.948;2023-03-12T05:46:28;5.00;99.90
11136;DHT22;5622;50.840;4.948;2023-03-12T05:48:55;5.00;99.90
11136;DHT22;5622;50.840;4.948;2023-03-12T05:51:22;5.00;99.90
11136;DHT22;5622;50.840;4.948;2023-03-12T05:53:51;5.00;99.90
11136;DHT22;5622;50.840;4.948;2023-03-12T05:56:18;5.00;99.90
11136;DHT22;5622;50.840;4.948;2023-03-12T05:58:47;5.00;99.90
11136;DHT22;5622;50.840;4.948;2023-03-12T06:01:16;5.00;99.90
11136;DHT22;5622;50.840;4.948;2023-03-12T06:03:44;5.00;99.90
11136;DHT22;5622;50.840;4.948;2023-03-12T06:06:11;5.00;99.90
11136;DHT22;5622;50.840;4.948;2023-03-12T06:08:39;5.00;99.90
11136;DHT22;5622;50.840;4.948;2023-03-12T06:11:08;5.10;99.90
11136;DHT22;5622;50.840;4.948;2023-03-12T06:13:36;5.10;99.90
11136;DHT22;5622;50.840;4.948;2023-03-12T06:16:04;5.10;99.90
11136;DHT22;5622;50.840;4.948;2023-03-12T06:18:32;5.10;99.90
11136;DHT22;5622;50.840;4.948;2023-03-12T06:21:11;5.20;99.90
11136;DHT22;5622;50.840;4.948;2023-03-12T06:23:38;5.20;99.90
11136;DHT22;5622;50.840;4.948;2023-03-12T06:26:07;5.20;99.90
11136;DHT22;5622;50.840;4.948;2023-03-12T06:28:35;5.20;99.90
11136;DHT22;5622;50.840;4.948;2023-03-12T06:31:03;5.30;99.90
11136;DHT22;5622;50.840;4.948;2023-03-12T06:33:31;5.30;99.90
11136;DHT22;5622;50.840;4.948;2023-03-12T06:35:59;5.30;99.90
11136;DHT22;5622;50.840;4.948;2023-03-12T06:38:27;5.40;99.90
11136;DHT22;5622;50.840;4.948;2023-03-12T06:40:55;5.40;99.90
11136;DHT22;5622;50.840;4.948;2023-03-12T06:43:26;5.50;99.90
11136;DHT22;5622;50.840;4.948;2023-03-12T06:45:54;5.50;99.90
11136;DHT22;5622;50.840;4.948;2023-03-12T06:48:22;5.60;99.90
11136;DHT22;5622;50.840;4.948;2023-03-12T06:50:50;5.70;99.90
11136;DHT22;5622;50.840;4.948;2023-03-12T06:53:17;5.80;99.90
11136;DHT22;5622;50.840;4.948;2023-03-12T06:55:45;5.80;99.90
11136;DHT22;5622;50.840;4.948;2023-03-12T06:58:12;5.80;99.90
11136;DHT22;5622;50.840;4.948;2023-03-12T07:00:41;5.90;99.90
11136;DHT22;5622;50.840;4.948;2023-03-12T07:03:08;5.90;99.90
11136;DHT22;5622;50.840;4.948;2023-03-12T07:05:35;5.90;99.90
11136;DHT22;5622;50.840;4.948;2023-03-12T07:08:03;6.00;99.90
11136;DHT22;5622;50.840;4.948;2023-03-12T07:10:30;6.00;99.90
11136;DHT22;5622;50.840;4.948;2023-03-12T07:12:57;6.10;99.90
11136;DHT22;5622;50.840;4.948;2023-03-12T07:15:24;6.10;99.90
11136;DHT22;5622;50.840;4.948;2023-03-12T07:17:53;6.10;99.90
11136;DHT22;5622;50.840;4.948;2023-03-12T07:20:20;6.20;99.90
11136;DHT22;5622;50.840;4.948;2023-03-12T07:22:47;6.20;99.90
11136;DHT22;5622;50.840;4.948;2023-03-12T07:25:15;6.20;99.90
11136;DHT22;5622;50.840;4.948;2023-03-12T07:27:42;6.30;99.90
11136;DHT22;5622;50.840;4.948;2023-03-12T07:30:10;6.30;99.90
11136;DHT22;5622;50.840;4.948;2023-03-12T07:32:37;6.40;99.90
11136;DHT22;5622;50.840;4.948;2023-03-12T07:35:06;6.40;99.90
11136;DHT22;5622;50.840;4.948;2023-03-12T07:37:34;6.40;99.90
11136;DHT22;5622;50.840;4.948;2023-03-12T07:40:01;6.50;99.90
11136;DHT22;5622;50.840;4.948;2023-03-12T07:42:30;6.60;99.90
11136;DHT22;5622;50.840;4.948;2023-03-12T07:44:57;6.70;99.90
11136;DHT22;5622;50.840;4.948;2023-03-12T07:47:24;6.70;99.90
11136;DHT22;5622;50.840;4.948;2023-03-12T07:49:51;6.90;99.90
11136;DHT22;5622;50.840;4.948;2023-03-12T07:52:20;6.90;99.90
11136;DHT22;5622;50.840;4.948;2023-03-12T07:54:48;7.00;99.90
11136;DHT22;5622;50.840;4.948;2023-03-12T07:57:17;7.10;99.90
11136;DHT22;5622;50.840;4.948;2023-03-12T07:59:44;7.20;99.90
11136;DHT22;5622;50.840;4.948;2023-03-12T08:02:12;7.20;99.90
11136;DHT22;5622;50.840;4.948;2023-03-12T08:04:40;7.30;99.90
11136;DHT22;5622;50.840;4.948;2023-03-12T08:07:07;7.30;99.90
11136;DHT22;5622;50.840;4.948;2023-03-12T08:09:35;7.40;99.90
11136;DHT22;5622;50.840;4.948;2023-03-12T08:12:04;7.50;99.90
11136;DHT22;5622;50.840;4.948;2023-03-12T08:14:31;7.50;99.90
11136;DHT22;5622;50.840;4.948;2023-03-12T08:16:58;7.60;99.90
11136;DHT22;5622;50.840;4.948;2023-03-12T08:19:26;7.70;99.90
11136;DHT22;5622;50.840;4.948;2023-03-12T08:21:53;7.70;99.90
11136;DHT22;5622;50.840;4.948;2023-03-12T08:24:21;7.70;99.90
11136;DHT22;5622;50.840;4.948;2023-03-12T08:26:49;7.70;99.90
11136;DHT22;5622;50.840;4.948;2023-03-12T08:29:17;7.80;99.90
11136;DHT22;5622;50.840;4.948;2023-03-12T08:31:44;7.80;99.90
11136;DHT22;5622;50.840;4.948;2023-03-12T08:34:12;7.80;99.90
11136;DHT22;5622;50.840;4.948;2023-03-12T08:36:39;7.90;99.90
11136;DHT22;5622;50.840;4.948;2023-03-12T08:39:06;7.90;99.90
11136;DHT22;5622;50.840;4.948;2023-03-12T08:41:33;7.90;99.90
11136;DHT22;5622;50.840;4.948;2023-03-12T08:44:02;7.90;99.90
11136;DHT22;5622;50.840;4.948;2023-03-12T08:46:29;8.00;99.90
11136;DHT22;5622;50.840;4.948;2023-03-12T08:48:56;8.00;99.90
11136;DHT22;5622;50.840;4.948;2023-03-12T08:51:23;8.00;99.90
11136;DHT22;5622;50.840;4.948;2023-03-12T08:53:50;8.10;99.90
11136;DHT22;5622;50.840;4.948;2023-03-12T08:56:17;8.10;99.90
11136;DHT22;5622;50.840;4.948;2023-03-12T08:58:44;8.10;99.90
11136;DHT22;5622;50.840;4.948;2023-03-12T09:01:13;8.20;99.90
11136;DHT22;5622;50.840;4.948;2023-03-12T09:03:40;8.20;99.90
11136;DHT22;5622;50.840;4.948;2023-03-12T09:06:08;8.20;99.90
11136;DHT22;5622;50.840;4.948;2023-03-12T09:08:38;8.20;99.90
11136;DHT22;5622;50.840;4.948;2023-03-12T09:11:05;8.30;99.90
11136;DHT22;5622;50.840;4.948;2023-03-12T09:13:34;8.30;99.90
11136;DHT22;5622;50.840;4.948;2023-03-12T09:16:01;8.40;99.90
11136;DHT22;5622;50.840;4.948;2023-03-12T09:18:31;8.50;99.90
11136;DHT22;5622;50.840;4.948;2023-03-12T09:20:59;8.50;99.90
11136;DHT22;5622;50.840;4.948;2023-03-12T09:23:27;8.60;99.90
11136;DHT22;5622;50.840;4.948;2023-03-12T09:25:55;8.60;99.90
11136;DHT22;5622;50.840;4.948;2023-03-12T09:28:23;8.60;99.90
11136;DHT22;5622;50.840;4.948;2023-03-12T09:30:50;8.70;99.90
11136;DHT22;5622;50.840;4.948;2023-03-12T09:33:17;8.80;99.90
11136;DHT22;5622;50.840;4.948;2023-03-12T09:35:54;8.90;99.90
11136;DHT22;5622;50.840;4.948;2023-03-12T09:38:22;9.00;99.90
11136;DHT22;5622;50.840;4.948;2023-03-12T09:40:49;9.00;99.90
11136;DHT22;5622;50.840;4.948;2023-03-12T09:43:21;9.10;99.90
11136;DHT22;5622;50.840;4.948;2023-03-12T09:45:52;9.20;99.90
11136;DHT22;5622;50.840;4.948;2023-03-12T09:48:27;9.40;99.90
11136;DHT22;5622;50.840;4.948;2023-03-12T09:51:01;9.60;99.90
11136;DHT22;5622;50.840;4.948;2023-03-12T09:53:33;9.80;99.90
11136;DHT22;5622;50.840;4.948;2023-03-12T09:56:03;9.90;99.90
11136;DHT22;5622;50.840;4.948;2023-03-12T09:58:37;10.00;99.90
11136;DHT22;5622;50.840;4.948;2023-03-12T10:01:14;10.00;99.90
11136;DHT22;5622;50.840;4.948;2023-03-12T10:03:54;10.20;99.90
11136;DHT22;5622;50.840;4.948;2023-03-12T10:06:26;10.30;99.90
11136;DHT22;5622;50.840;4.948;2023-03-12T10:09:02;10.30;99.90
11136;DHT22;5622;50.840;4.948;2023-03-12T10:11:38;10.40;99.90
11136;DHT22;5622;50.840;4.948;2023-03-12T10:14:24;10.40;99.90
11136;DHT22;5622;50.840;4.948;2023-03-12T10:17:07;10.60;99.90
11136;DHT22;5622;50.840;4.948;2023-03-12T10:20:32;10.70;99.90
11136;DHT22;5622;50.840;4.948;2023-03-12T10:23:10;10.70;99.90
11136;DHT22;5622;50.840;4.948;2023-03-12T10:25:41;10.80;99.90
11136;DHT22;5622;50.840;4.948;2023-03-12T10:28:14;10.90;99.90
11136;DHT22;5622;50.840;4.948;2023-03-12T10:30:50;11.00;99.90
11136;DHT22;5622;50.840;4.948;2023-03-12T10:33:19;11.20;99.90
11136;DHT22;5622;50.840;4.948;2023-03-12T10:35:49;11.40;99.90
11136;DHT22;5622;50.840;4.948;2023-03-12T10:38:24;11.70;99.90
11136;DHT22;5622;50.840;4.948;2023-03-12T10:40:53;11.60;99.90
11136;DHT22;5622;50.840;4.948;2023-03-12T10:43:20;11.50;99.90
11136;DHT22;5622;50.840;4.948;2023-03-12T10:45:54;11.50;99.90
11136;DHT22;5622;50.840;4.948;2023-03-12T10:48:24;11.40;99.90
11136;DHT22;5622;50.840;4.948;2023-03-12T10:51:02;11.40;99.90
11136;DHT22;5622;50.840;4.948;2023-03-12T10:53:30;11.40;99.90
11136;DHT22;5622;50.840;4.948;2023-03-12T10:56:03;11.40;99.90
11136;DHT22;5622;50.840;4.948;2023-03-12T10:58:33;11.40;99.90
11136;DHT22;5622;50.840;4.948;2023-03-12T11:01:03;11.40;99.90
11136;DHT22;5622;50.840;4.948;2023-03-12T11:03:30;11.50;99.90
11136;DHT22;5622;50.840;4.948;2023-03-12T11:06:01;11.40;99.90
11136;DHT22;5622;50.840;4.948;2023-03-12T11:08:30;11.50;99.90
11136;DHT22;5622;50.840;4.948;2023-03-12T11:10:58;11.50;99.90
11136;DHT22;5622;50.840;4.948;2023-03-12T11:13:28;11.50;99.90
11136;DHT22;5622;50.840;4.948;2023-03-12T11:15:57;11.50;99.90
11136;DHT22;5622;50.840;4.948;2023-03-12T11:18:27;11.60;99.90
11136;DHT22;5622;50.840;4.948;2023-03-12T11:20:56;11.60;99.90
11136;DHT22;5622;50.840;4.948;2023-03-12T11:23:27;11.60;99.90
11136;DHT22;5622;50.840;4.948;2023-03-12T11:25:58;11.60;99.90
11136;DHT22;5622;50.840;4.948;2023-03-12T11:28:33;11.60;99.90
11136;DHT22;5622;50.840;4.948;2023-03-12T11:31:02;11.70;99.90
11136;DHT22;5622;50.840;4.948;2023-03-12T11:33:31;11.70;99.90
11136;DHT22;5622;50.840;4.948;2023-03-12T11:36:13;11.70;99.90
11136;DHT22;5622;50.840;4.948;2023-03-12T11:38:50;11.70;99.90
11136;DHT22;5622;50.840;4.948;2023-03-12T11:41:27;11.70;99.90
11136;DHT22;5622;50.840;4.948;2023-03-12T11:47:09;11.80;99.90
11136;DHT22;5622;50.840;4.948;2023-03-12T11:49:50;11.70;99.90
11136;DHT22;5622;50.840;4.948;2023-03-12T11:52:27;11.70;99.90
11136;DHT22;5622;50.840;4.948;2023-03-12T11:55:16;11.70;99.90
11136;DHT22;5622;50.840;4.948;2023-03-12T11:57:54;11.70;99.90
11136;DHT22;5622;50.840;4.948;2023-03-12T12:00:29;11.80;99.90
11136;DHT22;5622;50.840;4.948;2023-03-12T12:06:14;11.70;99.90
11136;DHT22;5622;50.840;4.948;2023-03-12T12:08:55;11.70;99.90
11136;DHT22;5622;50.840;4.948;2023-03-12T12:11:36;11.60;99.90
11136;DHT22;5622;50.840;4.948;2023-03-12T12:14:14;11.60;99.90
11136;DHT22;5622;50.840;4.948;2023-03-12T12:16:54;11.60;99.90
11136;DHT22;5622;50.840;4.948;2023-03-12T12:19:35;11.60;99.90
11136;DHT22;5622;50.840;4.948;2023-03-12T12:22:20;11.70;99.90
11136;DHT22;5622;50.840;4.948;2023-03-12T12:25:04;11.70;99.90
11136;DHT22;5622;50.840;4.948;2023-03-12T12:27:45;11.80;99.90
11136;DHT22;5622;50.840;4.948;2023-03-12T12:30:17;11.90;99.90
11136;DHT22;5622;50.840;4.948;2023-03-12T12:33:04;11.90;99.90
11136;DHT22;5622;50.840;4.948;2023-03-12T12:35:35;11.90;99.90
11136;DHT22;5622;50.840;4.948;2023-03-12T12:38:06;11.80;99.90
11136;DHT22;5622;50.840;4.948;2023-03-12T12:40:38;11.70;99.90
11136;DHT22;5622;50.840;4.948;2023-03-12T12:43:23;11.70;99.90
11136;DHT22;5622;50.840;4.948;2023-03-12T12:45:54;11.60;99.90
11136;DHT22;5622;50.840;4.948;2023-03-12T12:48:28;11.60;99.90
11136;DHT22;5622;50.840;4.948;2023-03-12T12:50:58;11.60;99.90
11136;DHT22;5622;50.840;4.948;2023-03-12T12:53:30;11.60;99.90
11136;DHT22;5622;50.840;4.948;2023-03-12T12:56:05;11.60;99.90
11136;DHT22;5622;50.840;4.948;2023-03-12T12:58:59;11.70;99.90
11136;DHT22;5622;50.840;4.948;2023-03-12T13:01:30;11.70;99.90
11136;DHT22;5622;50.840;4.948;2023-03-12T13:04:05;11.80;99.90
11136;DHT22;5622;50.840;4.948;2023-03-12T13:06:54;11.80;99.90
11136;DHT22;5622;50.840;4.948;2023-03-12T13:09:34;11.80;99.90
11136;DHT22;5622;50.840;4.948;2023-03-12T13:12:07;11.80;99.90
11136;DHT22;5622;50.840;4.948;2023-03-12T13:14:40;11.70;99.90
11136;DHT22;5622;50.840;4.948;2023-03-12T13:17:23;11.70;99.90
11136;DHT22;5622;50.840;4.948;2023-03-12T13:19:56;11.60;99.90
11136;DHT22;5622;50.840;4.948;2023-03-12T13:22:33;11.60;99.90
11136;DHT22;5622;50.840;4.948;2023-03-12T13:25:15;11.50;99.90
11136;DHT22;5622;50.840;4.948;2023-03-12T13:27:46;11.60;99.90
11136;DHT22;5622;50.840;4.948;2023-03-12T13:30:48;11.70;99.90
11136;DHT22;5622;50.840;4.948;2023-03-12T13:33:16;11.70;99.90
11136;DHT22;5622;50.840;4.948;2023-03-12T13:36:17;11.80;99.90
11136;DHT22;5622;50.840;4.948;2023-03-12T13:38:56;11.80;99.90
11136;DHT22;5622;50.840;4.948;2023-03-12T13:41:33;11.70;99.90
11136;DHT22;5622;50.840;4.948;2023-03-12T13:44:30;11.70;99.90
11136;DHT22;5622;50.840;4.948;2023-03-12T13:47:14;11.80;99.90
11136;DHT22;5622;50.840;4.948;2023-03-12T13:49:46;11.70;99.90
11136;DHT22;5622;50.840;4.948;2023-03-12T13:52:20;11.70;99.90
11136;DHT22;5622;50.840;4.948;2023-03-12T13:54:56;11.70;99.90
11136;DHT22;5622;50.840;4.948;2023-03-12T13:57:29;11.70;99.90
11136;DHT22;5622;50.840;4.948;2023-03-12T14:00:03;11.70;99.90
11136;DHT22;5622;50.840;4.948;2023-03-12T14:02:35;11.60;99.90
11136;DHT22;5622;50.840;4.948;2023-03-12T14:05:06;11.60;99.90
11136;DHT22;5622;50.840;4.948;2023-03-12T14:10:42;11.60;99.90
11136;DHT22;5622;50.840;4.948;2023-03-12T14:13:27;11.60;99.90
11136;DHT22;5622;50.840;4.948;2023-03-12T14:16:02;11.60;99.90
11136;DHT22;5622;50.840;4.948;2023-03-12T14:18:35;11.70;99.90
11136;DHT22;5622;50.840;4.948;2023-03-12T14:21:08;11.70;99.90
11136;DHT22;5622;50.840;4.948;2023-03-12T14:23:40;11.70;99.90
11136;DHT22;5622;50.840;4.948;2023-03-12T14:26:18;11.70;99.90
11136;DHT22;5622;50.840;4.948;2023-03-12T14:28:56;11.70;99.90
11136;DHT22;5622;50.840;4.948;2023-03-12T14:31:25;11.80;99.90
11136;DHT22;5622;50.840;4.948;2023-03-12T14:33:58;11.80;99.90
11136;DHT22;5622;50.840;4.948;2023-03-12T14:36:33;11.80;99.90
11136;DHT22;5622;50.840;4.948;2023-03-12T14:39:14;11.80;99.90
11136;DHT22;5622;50.840;4.948;2023-03-12T14:41:44;11.80;99.90
11136;DHT22;5622;50.840;4.948;2023-03-12T14:44:21;11.80;99.90
11136;DHT22;5622;50.840;4.948;2023-03-12T14:46:55;11.80;99.90
11136;DHT22;5622;50.840;4.948;2023-03-12T14:49:24;11.70;99.90
11136;DHT22;5622;50.840;4.948;2023-03-12T14:51:52;11.70;99.90
11136;DHT22;5622;50.840;4.948;2023-03-12T14:54:21;11.70;99.90
11136;DHT22;5622;50.840;4.948;2023-03-12T14:56:49;11.70;99.90
11136;DHT22;5622;50.840;4.948;2023-03-12T14:59:25;11.70;99.90
11136;DHT22;5622;50.840;4.948;2023-03-12T15:01:58;11.70;99.90
11136;DHT22;5622;50.840;4.948;2023-03-12T15:04:28;11.70;99.90
11136;DHT22;5622;50.840;4.948;2023-03-12T15:06:57;11.70;99.90
11136;DHT22;5622;50.840;4.948;2023-03-12T15:09:29;11.70;99.90
11136;DHT22;5622;50.840;4.948;2023-03-12T15:11:58;11.70;99.90
11136;DHT22;5622;50.840;4.948;2023-03-12T15:14:28;11.70;99.90
11136;DHT22;5622;50.840;4.948;2023-03-12T15:16:56;11.60;99.90
11136;DHT22;5622;50.840;4.948;2023-03-12T15:19:29;11.60;99.90
11136;DHT22;5622;50.840;4.948;2023-03-12T15:21:57;11.60;99.90
11136;DHT22;5622;50.840;4.948;2023-03-12T15:24:25;11.60;99.90
11136;DHT22;5622;50.840;4.948;2023-03-12T15:26:54;11.60;99.90
11136;DHT22;5622;50.840;4.948;2023-03-12T15:29:23;11.70;99.90
11136;DHT22;5622;50.840;4.948;2023-03-12T15:31:55;11.70;99.90
11136;DHT22;5622;50.840;4.948;2023-03-12T15:34:29;11.70;99.90
11136;DHT22;5622;50.840;4.948;2023-03-12T15:36:58;11.70;99.90
11136;DHT22;5622;50.840;4.948;2023-03-12T15:39:27;11.80;99.90
11136;DHT22;5622;50.840;4.948;2023-03-12T15:41:59;11.80;99.90
11136;DHT22;5622;50.840;4.948;2023-03-12T15:44:29;11.80;99.90
11136;DHT22;5622;50.840;4.948;2023-03-12T15:47:02;11.80;99.90
11136;DHT22;5622;50.840;4.948;2023-03-12T15:49:35;11.80;99.90
11136;DHT22;5622;50.840;4.948;2023-03-12T15:52:06;11.80;99.90
11136;DHT22;5622;50.840;4.948;2023-03-12T15:55:00;11.80;99.90
11136;DHT22;5622;50.840;4.948;2023-03-12T15:57:28;11.80;99.90
11136;DHT22;5622;50.840;4.948;2023-03-12T16:00:19;11.70;99.90
11136;DHT22;5622;50.840;4.948;2023-03-12T16:02:52;11.70;99.90
11136;DHT22;5622;50.840;4.948;2023-03-12T16:05:24;11.70;99.90
11136;DHT22;5622;50.840;4.948;2023-03-12T16:07:52;11.70;99.90
11136;DHT22;5622;50.840;4.948;2023-03-12T16:10:21;11.70;99.90
11136;DHT22;5622;50.840;4.948;2023-03-12T16:12:50;11.70;99.90
11136;DHT22;5622;50.840;4.948;2023-03-12T16:15:24;11.70;99.90
11136;DHT22;5622;50.840;4.948;2023-03-12T16:17:51;11.70;99.90
11136;DHT22;5622;50.840;4.948;2023-03-12T16:20:20;11.70;99.90
11136;DHT22;5622;50.840;4.948;2023-03-12T16:22:47;11.70;99.90
11136;DHT22;5622;50.840;4.948;2023-03-12T16:25:15;11.70;99.90